Terminal Aerodrome Forecast
Issued by NWS Sioux Falls, SD

Home | Current Version | Previous Version | Text Only | Print | Product List | Glossary Off
Versions: 1 2 3 4 5 6 7 8 9 10 11 12 13 14 15 16 17

000
FTUS43 KFSD 140837 AAA
TAFHON
TAF AMD
KHON 140837Z 1409/1506 VRB03KT 1SM BR SCT003
     FM141000 33004KT 1/4SM FG VV002
     FM141400 36006KT 2SM BR SCT008
     FM141500 36006KT P6SM SCT015
     FM141700 03006KT P6SM FEW040
     FM142000 06005KT P6SM FEW200=

USA.gov is the U.S. government's official web portal to all federal, state and local government web resources and services.